sensor_id;sensor_type;location;lat;lon;timestamp;temperature;humidity
10453;DHT22;5274;51.992;8.518;2022-11-15T00:00:17;9.00;1.00
10453;DHT22;5274;51.992;8.518;2022-11-15T00:02:43;9.00;1.00
10453;DHT22;5274;51.992;8.518;2022-11-15T00:05:08;9.00;1.00
10453;DHT22;5274;51.992;8.518;2022-11-15T00:07:34;9.00;1.00
10453;DHT22;5274;51.992;8.518;2022-11-15T00:10:00;9.00;99.90
10453;DHT22;5274;51.992;8.518;2022-11-15T00:12:27;9.00;99.90
10453;DHT22;5274;51.992;8.518;2022-11-15T00:14:53;9.10;99.90
10453;DHT22;5274;51.992;8.518;2022-11-15T00:17:19;9.20;99.90
10453;DHT22;5274;51.992;8.518;2022-11-15T00:19:44;9.10;99.90
10453;DHT22;5274;51.992;8.518;2022-11-15T00:22:10;9.20;99.90
10453;DHT22;5274;51.992;8.518;2022-11-15T00:24:35;9.20;99.90
10453;DHT22;5274;51.992;8.518;2022-11-15T00:27:01;9.30;99.90
10453;DHT22;5274;51.992;8.518;2022-11-15T00:29:27;9.30;99.90
10453;DHT22;5274;51.992;8.518;2022-11-15T00:31:52;9.30;99.90
10453;DHT22;5274;51.992;8.518;2022-11-15T00:34:18;9.40;99.90
10453;DHT22;5274;51.992;8.518;2022-11-15T00:36:43;9.40;99.90
10453;DHT22;5274;51.992;8.518;2022-11-15T00:39:09;9.30;1.00
10453;DHT22;5274;51.992;8.518;2022-11-15T00:41:34;9.40;99.90
10453;DHT22;5274;51.992;8.518;2022-11-15T00:44:00;9.50;1.00
10453;DHT22;5274;51.992;8.518;2022-11-15T00:46:25;9.50;99.90
10453;DHT22;5274;51.992;8.518;2022-11-15T00:48:51;9.50;99.90
10453;DHT22;5274;51.992;8.518;2022-11-15T00:51:16;9.60;99.90
10453;DHT22;5274;51.992;8.518;2022-11-15T00:53:42;9.60;1.00
10453;DHT22;5274;51.992;8.518;2022-11-15T00:56:07;9.60;1.00
10453;DHT22;5274;51.992;8.518;2022-11-15T00:58:33;9.60;1.00
10453;DHT22;5274;51.992;8.518;2022-11-15T01:01:10;9.60;1.00
10453;DHT22;5274;51.992;8.518;2022-11-15T01:03:37;9.60;1.00
10453;DHT22;5274;51.992;8.518;2022-11-15T01:06:03;9.70;1.00
10453;DHT22;5274;51.992;8.518;2022-11-15T01:08:29;9.70;46.80
10453;DHT22;5274;51.992;8.518;2022-11-15T01:11:00;9.70;95.40
10453;DHT22;5274;51.992;8.518;2022-11-15T01:13:29;9.70;99.90
10453;DHT22;5274;51.992;8.518;2022-11-15T01:15:55;9.70;99.90
10453;DHT22;5274;51.992;8.518;2022-11-15T01:18:21;9.80;99.90
10453;DHT22;5274;51.992;8.518;2022-11-15T01:20:46;9.80;99.90
10453;DHT22;5274;51.992;8.518;2022-11-15T01:23:12;9.80;99.90
10453;DHT22;5274;51.992;8.518;2022-11-15T01:25:37;9.80;1.00
10453;DHT22;5274;51.992;8.518;2022-11-15T01:28:03;9.90;1.00
10453;DHT22;5274;51.992;8.518;2022-11-15T01:30:28;9.90;1.00
10453;DHT22;5274;51.992;8.518;2022-11-15T01:32:54;10.00;1.00
10453;DHT22;5274;51.992;8.518;2022-11-15T01:35:19;10.00;1.00
10453;DHT22;5274;51.992;8.518;2022-11-15T01:37:46;10.00;1.00
10453;DHT22;5274;51.992;8.518;2022-11-15T01:40:11;10.10;93.50
10453;DHT22;5274;51.992;8.518;2022-11-15T01:42:37;10.10;65.50
10453;DHT22;5274;51.992;8.518;2022-11-15T01:45:03;10.10;99.90
10453;DHT22;5274;51.992;8.518;2022-11-15T01:47:31;10.10;99.90
10453;DHT22;5274;51.992;8.518;2022-11-15T01:50:02;10.10;1.00
10453;DHT22;5274;51.992;8.518;2022-11-15T01:52:30;10.10;1.00
10453;DHT22;5274;51.992;8.518;2022-11-15T01:55:11;10.20;99.90
10453;DHT22;5274;51.992;8.518;2022-11-15T01:57:39;10.10;99.90
10453;DHT22;5274;51.992;8.518;2022-11-15T02:00:05;10.00;99.90
10453;DHT22;5274;51.992;8.518;2022-11-15T02:02:32;10.00;99.90
10453;DHT22;5274;51.992;8.518;2022-11-15T02:04:57;10.00;1.00
10453;DHT22;5274;51.992;8.518;2022-11-15T02:07:23;10.00;1.00
10453;DHT22;5274;51.992;8.518;2022-11-15T02:09:49;10.00;99.90
10453;DHT22;5274;51.992;8.518;2022-11-15T02:12:18;10.10;99.90
10453;DHT22;5274;51.992;8.518;2022-11-15T02:14:48;10.10;99.90
10453;DHT22;5274;51.992;8.518;2022-11-15T02:17:56;10.10;99.90
10453;DHT22;5274;51.992;8.518;2022-11-15T02:29:41;10.30;99.90
10453;DHT22;5274;51.992;8.518;2022-11-15T02:32:19;10.30;1.00
10453;DHT22;5274;51.992;8.518;2022-11-15T02:37:35;10.40;1.00
10453;DHT22;5274;51.992;8.518;2022-11-15T02:43:09;10.40;1.00
10453;DHT22;5274;51.992;8.518;2022-11-15T02:46:18;10.50;1.00
10453;DHT22;5274;51.992;8.518;2022-11-15T02:48:48;10.50;52.70
10453;DHT22;5274;51.992;8.518;2022-11-15T02:51:14;10.50;1.00
10453;DHT22;5274;51.992;8.518;2022-11-15T02:53:41;10.50;1.00
10453;DHT22;5274;51.992;8.518;2022-11-15T02:56:09;10.40;1.00
10453;DHT22;5274;51.992;8.518;2022-11-15T02:58:57;10.40;51.10
10453;DHT22;5274;51.992;8.518;2022-11-15T03:04:53;10.50;99.90
10453;DHT22;5274;51.992;8.518;2022-11-15T03:07:16;10.50;1.00
10453;DHT22;5274;51.992;8.518;2022-11-15T03:12:26;10.60;1.00
10453;DHT22;5274;51.992;8.518;2022-11-15T03:15:01;10.60;99.90
10453;DHT22;5274;51.992;8.518;2022-11-15T03:17:35;10.60;99.90
10453;DHT22;5274;51.992;8.518;2022-11-15T03:20:05;10.60;1.00
10453;DHT22;5274;51.992;8.518;2022-11-15T03:22:44;10.60;1.00
10453;DHT22;5274;51.992;8.518;2022-11-15T03:25:14;10.60;99.90
10453;DHT22;5274;51.992;8.518;2022-11-15T03:27:46;10.60;1.00
10453;DHT22;5274;51.992;8.518;2022-11-15T03:30:13;10.60;1.00
10453;DHT22;5274;51.992;8.518;2022-11-15T03:32:55;10.60;99.90
10453;DHT22;5274;51.992;8.518;2022-11-15T03:35:44;10.60;1.00
10453;DHT22;5274;51.992;8.518;2022-11-15T03:38:24;10.60;99.90
10453;DHT22;5274;51.992;8.518;2022-11-15T03:40:58;10.60;1.00
10453;DHT22;5274;51.992;8.518;2022-11-15T03:46:12;10.60;1.00
10453;DHT22;5274;51.992;8.518;2022-11-15T03:48:45;10.60;1.00
10453;DHT22;5274;51.992;8.518;2022-11-15T03:51:13;10.60;99.90
10453;DHT22;5274;51.992;8.518;2022-11-15T03:53:41;10.60;99.90
10453;DHT22;5274;51.992;8.518;2022-11-15T03:56:06;10.60;99.90
10453;DHT22;5274;51.992;8.518;2022-11-15T03:58:32;10.60;95.70
10453;DHT22;5274;51.992;8.518;2022-11-15T04:00:57;10.60;99.90
10453;DHT22;5274;51.992;8.518;2022-11-15T04:03:25;10.60;99.90
10453;DHT22;5274;51.992;8.518;2022-11-15T04:05:50;10.60;99.90
10453;DHT22;5274;51.992;8.518;2022-11-15T04:08:16;10.60;99.90
10453;DHT22;5274;51.992;8.518;2022-11-15T04:10:41;10.60;99.90
10453;DHT22;5274;51.992;8.518;2022-11-15T04:13:07;10.60;99.90
10453;DHT22;5274;51.992;8.518;2022-11-15T04:15:33;10.60;99.90
10453;DHT22;5274;51.992;8.518;2022-11-15T04:17:58;10.70;1.00
10453;DHT22;5274;51.992;8.518;2022-11-15T04:20:29;10.60;60.30
10453;DHT22;5274;51.992;8.518;2022-11-15T04:23:18;10.70;99.90
10453;DHT22;5274;51.992;8.518;2022-11-15T04:26:12;10.60;99.90
10453;DHT22;5274;51.992;8.518;2022-11-15T04:28:38;10.70;99.90
10453;DHT22;5274;51.992;8.518;2022-11-15T04:31:24;10.60;1.00
10453;DHT22;5274;51.992;8.518;2022-11-15T04:33:49;10.70;99.90
10453;DHT22;5274;51.992;8.518;2022-11-15T04:36:15;10.70;1.00
10453;DHT22;5274;51.992;8.518;2022-11-15T04:38:59;10.70;1.00
10453;DHT22;5274;51.992;8.518;2022-11-15T04:41:24;10.70;1.00
10453;DHT22;5274;51.992;8.518;2022-11-15T04:43:50;10.70;1.00
10453;DHT22;5274;51.992;8.518;2022-11-15T04:46:16;10.70;99.90
10453;DHT22;5274;51.992;8.518;2022-11-15T04:48:41;10.70;99.90
10453;DHT22;5274;51.992;8.518;2022-11-15T04:51:07;10.70;1.00
10453;DHT22;5274;51.992;8.518;2022-11-15T04:53:32;10.70;1.00
10453;DHT22;5274;51.992;8.518;2022-11-15T04:55:58;10.70;1.00
10453;DHT22;5274;51.992;8.518;2022-11-15T04:58:23;10.60;1.00
10453;DHT22;5274;51.992;8.518;2022-11-15T05:00:49;10.70;1.00
10453;DHT22;5274;51.992;8.518;2022-11-15T05:03:14;10.60;1.00
10453;DHT22;5274;51.992;8.518;2022-11-15T05:05:58;10.70;99.90
10453;DHT22;5274;51.992;8.518;2022-11-15T05:08:24;10.60;1.00
10453;DHT22;5274;51.992;8.518;2022-11-15T05:10:50;10.60;99.90
10453;DHT22;5274;51.992;8.518;2022-11-15T05:13:16;10.60;1.00
10453;DHT22;5274;51.992;8.518;2022-11-15T05:15:42;10.60;1.00
10453;DHT22;5274;51.992;8.518;2022-11-15T05:18:07;10.60;1.00
10453;DHT22;5274;51.992;8.518;2022-11-15T05:20:33;10.60;99.90
10453;DHT22;5274;51.992;8.518;2022-11-15T05:22:58;10.70;99.90
10453;DHT22;5274;51.992;8.518;2022-11-15T05:25:24;10.60;1.00
10453;DHT22;5274;51.992;8.518;2022-11-15T05:27:50;10.60;1.00
10453;DHT22;5274;51.992;8.518;2022-11-15T05:30:16;10.60;1.00
10453;DHT22;5274;51.992;8.518;2022-11-15T05:32:42;10.60;1.00
10453;DHT22;5274;51.992;8.518;2022-11-15T05:35:13;10.60;1.00
10453;DHT22;5274;51.992;8.518;2022-11-15T05:37:40;10.60;1.00
10453;DHT22;5274;51.992;8.518;2022-11-15T05:40:06;10.60;99.90
10453;DHT22;5274;51.992;8.518;2022-11-15T05:42:32;10.60;1.00
10453;DHT22;5274;51.992;8.518;2022-11-15T05:44:59;10.60;1.00
10453;DHT22;5274;51.992;8.518;2022-11-15T05:47:27;10.70;1.00
10453;DHT22;5274;51.992;8.518;2022-11-15T05:49:54;10.60;99.90
10453;DHT22;5274;51.992;8.518;2022-11-15T05:52:25;10.60;99.90
10453;DHT22;5274;51.992;8.518;2022-11-15T05:54:53;10.60;99.90
10453;DHT22;5274;51.992;8.518;2022-11-15T05:57:20;10.60;99.90
10453;DHT22;5274;51.992;8.518;2022-11-15T05:59:46;10.60;99.90
10453;DHT22;5274;51.992;8.518;2022-11-15T06:02:12;10.70;99.90
10453;DHT22;5274;51.992;8.518;2022-11-15T06:04:37;10.70;99.90
10453;DHT22;5274;51.992;8.518;2022-11-15T06:07:03;10.60;1.00
10453;DHT22;5274;51.992;8.518;2022-11-15T06:09:28;10.70;99.90
10453;DHT22;5274;51.992;8.518;2022-11-15T06:11:54;10.60;1.00
10453;DHT22;5274;51.992;8.518;2022-11-15T06:14:19;10.70;1.00
10453;DHT22;5274;51.992;8.518;2022-11-15T06:16:45;10.70;99.90
10453;DHT22;5274;51.992;8.518;2022-11-15T06:19:10;10.70;99.90
10453;DHT22;5274;51.992;8.518;2022-11-15T06:21:36;10.80;1.00
10453;DHT22;5274;51.992;8.518;2022-11-15T06:24:02;10.80;99.90
10453;DHT22;5274;51.992;8.518;2022-11-15T06:26:27;10.80;99.90
10453;DHT22;5274;51.992;8.518;2022-11-15T06:28:53;10.80;1.00
10453;DHT22;5274;51.992;8.518;2022-11-15T06:31:18;10.90;41.10
10453;DHT22;5274;51.992;8.518;2022-11-15T06:33:44;10.90;27.50
10453;DHT22;5274;51.992;8.518;2022-11-15T06:36:11;10.90;1.00
10453;DHT22;5274;51.992;8.518;2022-11-15T06:38:41;11.00;99.90
10453;DHT22;5274;51.992;8.518;2022-11-15T06:41:08;11.00;99.90
10453;DHT22;5274;51.992;8.518;2022-11-15T06:43:35;10.90;99.90
10453;DHT22;5274;51.992;8.518;2022-11-15T06:46:02;11.00;99.90
10453;DHT22;5274;51.992;8.518;2022-11-15T06:48:29;11.00;1.00
10453;DHT22;5274;51.992;8.518;2022-11-15T06:50:56;11.00;1.00
10453;DHT22;5274;51.992;8.518;2022-11-15T06:53:23;11.00;99.90
10453;DHT22;5274;51.992;8.518;2022-11-15T06:55:49;11.10;99.90
10453;DHT22;5274;51.992;8.518;2022-11-15T06:58:15;11.00;99.90
10453;DHT22;5274;51.992;8.518;2022-11-15T07:00:41;11.10;99.90
10453;DHT22;5274;51.992;8.518;2022-11-15T07:03:07;11.10;69.90
10453;DHT22;5274;51.992;8.518;2022-11-15T07:05:32;11.10;1.00
10453;DHT22;5274;51.992;8.518;2022-11-15T07:07:59;11.10;1.00
10453;DHT22;5274;51.992;8.518;2022-11-15T07:10:25;11.20;1.00
10453;DHT22;5274;51.992;8.518;2022-11-15T07:12:51;11.20;99.90
10453;DHT22;5274;51.992;8.518;2022-11-15T07:15:18;11.20;1.00
10453;DHT22;5274;51.992;8.518;2022-11-15T07:17:44;11.30;1.00
10453;DHT22;5274;51.992;8.518;2022-11-15T07:20:10;11.20;1.00
10453;DHT22;5274;51.992;8.518;2022-11-15T07:22:35;11.30;1.00
10453;DHT22;5274;51.992;8.518;2022-11-15T07:25:01;11.30;1.00
10453;DHT22;5274;51.992;8.518;2022-11-15T07:27:26;11.40;1.00
10453;DHT22;5274;51.992;8.518;2022-11-15T07:29:52;11.30;1.00
10453;DHT22;5274;51.992;8.518;2022-11-15T07:32:18;11.40;1.00
10453;DHT22;5274;51.992;8.518;2022-11-15T07:34:43;11.40;99.90
10453;DHT22;5274;51.992;8.518;2022-11-15T07:37:11;11.40;99.90
10453;DHT22;5274;51.992;8.518;2022-11-15T07:39:36;11.40;99.90
10453;DHT22;5274;51.992;8.518;2022-11-15T07:42:02;11.40;99.90
10453;DHT22;5274;51.992;8.518;2022-11-15T07:44:46;11.40;99.90
10453;DHT22;5274;51.992;8.518;2022-11-15T07:47:12;11.50;1.70
10453;DHT22;5274;51.992;8.518;2022-11-15T07:49:37;11.50;1.00
10453;DHT22;5274;51.992;8.518;2022-11-15T07:52:03;11.50;1.00
10453;DHT22;5274;51.992;8.518;2022-11-15T07:54:29;11.50;1.00
10453;DHT22;5274;51.992;8.518;2022-11-15T07:56:54;11.50;1.00
10453;DHT22;5274;51.992;8.518;2022-11-15T07:59:20;11.60;1.00
10453;DHT22;5274;51.992;8.518;2022-11-15T08:01:45;11.60;1.00
10453;DHT22;5274;51.992;8.518;2022-11-15T08:04:11;11.70;1.00
10453;DHT22;5274;51.992;8.518;2022-11-15T08:06:37;11.70;99.90
10453;DHT22;5274;51.992;8.518;2022-11-15T08:09:03;11.80;99.90
10453;DHT22;5274;51.992;8.518;2022-11-15T08:11:28;11.90;48.90
10453;DHT22;5274;51.992;8.518;2022-11-15T08:13:54;12.00;1.00
10453;DHT22;5274;51.992;8.518;2022-11-15T08:16:20;12.10;99.90
10453;DHT22;5274;51.992;8.518;2022-11-15T08:18:45;12.20;99.90
10453;DHT22;5274;51.992;8.518;2022-11-15T08:21:16;12.30;99.90
10453;DHT22;5274;51.992;8.518;2022-11-15T08:23:43;12.30;1.00
10453;DHT22;5274;51.992;8.518;2022-11-15T08:26:08;12.40;1.00
10453;DHT22;5274;51.992;8.518;2022-11-15T08:28:34;12.40;1.00
10453;DHT22;5274;51.992;8.518;2022-11-15T08:31:00;12.50;1.00
10453;DHT22;5274;51.992;8.518;2022-11-15T08:33:26;12.60;1.00
10453;DHT22;5274;51.992;8.518;2022-11-15T08:35:51;12.60;1.00
10453;DHT22;5274;51.992;8.518;2022-11-15T08:38:17;12.70;1.00
10453;DHT22;5274;51.992;8.518;2022-11-15T08:40:42;12.70;1.00
10453;DHT22;5274;51.992;8.518;2022-11-15T08:43:08;12.70;1.00
10453;DHT22;5274;51.992;8.518;2022-11-15T08:45:35;12.80;99.90
10453;DHT22;5274;51.992;8.518;2022-11-15T08:48:02;12.90;99.90
10453;DHT22;5274;51.992;8.518;2022-11-15T08:50:28;13.00;99.90
10453;DHT22;5274;51.992;8.518;2022-11-15T08:52:53;13.00;99.90
10453;DHT22;5274;51.992;8.518;2022-11-15T08:55:19;13.00;99.90
10453;DHT22;5274;51.992;8.518;2022-11-15T08:57:44;13.00;99.90
10453;DHT22;5274;51.992;8.518;2022-11-15T09:00:10;13.10;99.90
10453;DHT22;5274;51.992;8.518;2022-11-15T09:02:38;13.10;43.10
10453;DHT22;5274;51.992;8.518;2022-11-15T09:05:04;13.10;89.10
10453;DHT22;5274;51.992;8.518;2022-11-15T09:07:30;13.20;1.00
10453;DHT22;5274;51.992;8.518;2022-11-15T09:09:57;13.20;1.00
10453;DHT22;5274;51.992;8.518;2022-11-15T09:12:23;13.20;1.00
10453;DHT22;5274;51.992;8.518;2022-11-15T09:14:48;13.30;1.00
10453;DHT22;5274;51.992;8.518;2022-11-15T09:17:14;13.30;1.00
10453;DHT22;5274;51.992;8.518;2022-11-15T09:19:39;13.40;1.00
10453;DHT22;5274;51.992;8.518;2022-11-15T09:22:06;13.40;1.00
10453;DHT22;5274;51.992;8.518;2022-11-15T09:24:32;13.40;1.00
10453;DHT22;5274;51.992;8.518;2022-11-15T09:26:58;13.50;99.90
10453;DHT22;5274;51.992;8.518;2022-11-15T09:29:23;13.50;99.90
10453;DHT22;5274;51.992;8.518;2022-11-15T09:31:51;13.50;99.90
10453;DHT22;5274;51.992;8.518;2022-11-15T09:34:16;13.60;99.90
10453;DHT22;5274;51.992;8.518;2022-11-15T09:36:42;13.60;99.90
10453;DHT22;5274;51.992;8.518;2022-11-15T09:39:08;13.60;99.90
10453;DHT22;5274;51.992;8.518;2022-11-15T09:41:58;13.70;99.90
10453;DHT22;5274;51.992;8.518;2022-11-15T09:50:13;13.80;1.00
10453;DHT22;5274;51.992;8.518;2022-11-15T09:52:43;13.80;99.90
10453;DHT22;5274;51.992;8.518;2022-11-15T09:55:10;13.90;1.00
10453;DHT22;5274;51.992;8.518;2022-11-15T09:57:48;14.00;1.00
10453;DHT22;5274;51.992;8.518;2022-11-15T10:00:22;14.10;1.00
10453;DHT22;5274;51.992;8.518;2022-11-15T10:05:49;14.10;1.00
10453;DHT22;5274;51.992;8.518;2022-11-15T10:11:11;14.20;1.00
10453;DHT22;5274;51.992;8.518;2022-11-15T10:13:43;14.20;1.00
10453;DHT22;5274;51.992;8.518;2022-11-15T10:16:18;14.30;1.00
10453;DHT22;5274;51.992;8.518;2022-11-15T10:21:22;14.40;1.00
10453;DHT22;5274;51.992;8.518;2022-11-15T10:23:50;14.50;99.90
10453;DHT22;5274;51.992;8.518;2022-11-15T10:26:17;14.50;99.90
10453;DHT22;5274;51.992;8.518;2022-11-15T10:28:43;14.60;99.90
10453;DHT22;5274;51.992;8.518;2022-11-15T10:31:26;14.60;99.90
10453;DHT22;5274;51.992;8.518;2022-11-15T10:34:10;14.70;99.90
10453;DHT22;5274;51.992;8.518;2022-11-15T10:36:37;14.70;99.90
10453;DHT22;5274;51.992;8.518;2022-11-15T10:39:03;14.70;99.90
10453;DHT22;5274;51.992;8.518;2022-11-15T10:46:44;14.90;99.90
10453;DHT22;5274;51.992;8.518;2022-11-15T10:51:51;15.00;99.90
10453;DHT22;5274;51.992;8.518;2022-11-15T10:54:24;15.00;99.90
10453;DHT22;5274;51.992;8.518;2022-11-15T10:56:52;15.10;99.90
10453;DHT22;5274;51.992;8.518;2022-11-15T10:59:31;15.00;99.90
10453;DHT22;5274;51.992;8.518;2022-11-15T11:01:56;15.00;99.90
10453;DHT22;5274;51.992;8.518;2022-11-15T11:04:22;14.80;99.90
10453;DHT22;5274;51.992;8.518;2022-11-15T11:06:50;14.90;99.90
10453;DHT22;5274;51.992;8.518;2022-11-15T11:09:38;15.10;99.90
10453;DHT22;5274;51.992;8.518;2022-11-15T11:12:10;15.20;99.90
10453;DHT22;5274;51.992;8.518;2022-11-15T11:14:38;15.50;99.90
10453;DHT22;5274;51.992;8.518;2022-11-15T11:22:44;17.80;99.90
10453;DHT22;5274;51.992;8.518;2022-11-15T11:25:32;19.30;99.90
10453;DHT22;5274;51.992;8.518;2022-11-15T11:28:10;18.00;99.90
10453;DHT22;5274;51.992;8.518;2022-11-15T11:31:00;19.00;99.90
10453;DHT22;5274;51.992;8.518;2022-11-15T11:33:35;20.40;93.20
10453;DHT22;5274;51.992;8.518;2022-11-15T11:36:17;21.80;35.30
10453;DHT22;5274;51.992;8.518;2022-11-15T11:39:18;21.00;24.90
10453;DHT22;5274;51.992;8.518;2022-11-15T11:47:21;22.50;19.00
10453;DHT22;5274;51.992;8.518;2022-11-15T11:49:51;24.00;1.00
10453;DHT22;5274;51.992;8.518;2022-11-15T11:52:40;24.80;1.00
10453;DHT22;5274;51.992;8.518;2022-11-15T11:57:49;26.80;1.00
10453;DHT22;5274;51.992;8.518;2022-11-15T12:00:20;26.70;1.00
10453;DHT22;5274;51.992;8.518;2022-11-15T12:03:11;27.30;1.00
10453;DHT22;5274;51.992;8.518;2022-11-15T12:05:44;27.50;1.00
10453;DHT22;5274;51.992;8.518;2022-11-15T12:08:45;27.10;1.00
10453;DHT22;5274;51.992;8.518;2022-11-15T12:11:17;25.80;1.00
10453;DHT22;5274;51.992;8.518;2022-11-15T12:13:43;25.00;1.00
10453;DHT22;5274;51.992;8.518;2022-11-15T12:16:21;23.30;1.00
10453;DHT22;5274;51.992;8.518;2022-11-15T12:18:50;22.30;1.00
10453;DHT22;5274;51.992;8.518;2022-11-15T12:21:24;21.20;1.00
10453;DHT22;5274;51.992;8.518;2022-11-15T12:23:57;20.50;1.00
10453;DHT22;5274;51.992;8.518;2022-11-15T12:26:32;19.80;1.00
10453;DHT22;5274;51.992;8.518;2022-11-15T12:29:15;19.30;1.00
10453;DHT22;5274;51.992;8.518;2022-11-15T12:31:45;19.10;1.00
10453;DHT22;5274;51.992;8.518;2022-11-15T12:36:51;18.60;1.00
10453;DHT22;5274;51.992;8.518;2022-11-15T12:39:18;18.60;1.00
10453;DHT22;5274;51.992;8.518;2022-11-15T12:49:43;18.80;1.00
10453;DHT22;5274;51.992;8.518;2022-11-15T12:52:09;20.40;1.00
10453;DHT22;5274;51.992;8.518;2022-11-15T12:54:55;22.30;1.00
10453;DHT22;5274;51.992;8.518;2022-11-15T12:57:29;24.70;1.00
10453;DHT22;5274;51.992;8.518;2022-11-15T12:59:57;25.50;1.00
10453;DHT22;5274;51.992;8.518;2022-11-15T13:02:39;26.00;1.00
10453;DHT22;5274;51.992;8.518;2022-11-15T13:18:30;20.70;1.00
10453;DHT22;5274;51.992;8.518;2022-11-15T13:20:56;20.00;1.00
10453;DHT22;5274;51.992;8.518;2022-11-15T13:23:22;19.50;1.00
10453;DHT22;5274;51.992;8.518;2022-11-15T13:26:14;19.30;1.00
10453;DHT22;5274;51.992;8.518;2022-11-15T13:33:50;18.80;1.00
10453;DHT22;5274;51.992;8.518;2022-11-15T13:36:26;18.80;1.00
10453;DHT22;5274;51.992;8.518;2022-11-15T13:41:34;18.90;1.00
10453;DHT22;5274;51.992;8.518;2022-11-15T13:44:01;18.80;1.00
10453;DHT22;5274;51.992;8.518;2022-11-15T13:46:29;18.70;1.00
10453;DHT22;5274;51.992;8.518;2022-11-15T13:49:04;18.40;1.00
10453;DHT22;5274;51.992;8.518;2022-11-15T13:51:51;18.10;1.00
10453;DHT22;5274;51.992;8.518;2022-11-15T13:54:20;18.00;1.00
10453;DHT22;5274;51.992;8.518;2022-11-15T13:56:56;17.70;1.00
10453;DHT22;5274;51.992;8.518;2022-11-15T13:59:28;17.40;1.00
10453;DHT22;5274;51.992;8.518;2022-11-15T14:01:55;17.40;1.00
10453;DHT22;5274;51.992;8.518;2022-11-15T14:04:23;17.40;1.00
10453;DHT22;5274;51.992;8.518;2022-11-15T14:06:56;17.40;1.00
10453;DHT22;5274;51.992;8.518;2022-11-15T14:09:30;17.40;1.00
10453;DHT22;5274;51.992;8.518;2022-11-15T14:11:58;17.40;1.00
10453;DHT22;5274;51.992;8.518;2022-11-15T14:14:25;17.30;1.00
10453;DHT22;5274;51.992;8.518;2022-11-15T14:16:54;17.20;1.00
10453;DHT22;5274;51.992;8.518;2022-11-15T14:22:18;17.10;1.00
10453;DHT22;5274;51.992;8.518;2022-11-15T14:25:33;17.10;1.00
10453;DHT22;5274;51.992;8.518;2022-11-15T14:27:32;16.90;1.00
10453;DHT22;5274;51.992;8.518;2022-11-15T14:29:59;16.80;1.00
10453;DHT22;5274;51.992;8.518;2022-11-15T14:32:28;16.80;5.10
10453;DHT22;5274;51.992;8.518;2022-11-15T14:34:56;16.70;7.70
10453;DHT22;5274;51.992;8.518;2022-11-15T14:37:31;16.70;27.00
10453;DHT22;5274;51.992;8.518;2022-11-15T14:39:58;16.50;15.90
10453;DHT22;5274;51.992;8.518;2022-11-15T14:42:25;16.30;20.10
10453;DHT22;5274;51.992;8.518;2022-11-15T14:44:51;16.20;32.70
10453;DHT22;5274;51.992;8.518;2022-11-15T14:47:17;16.00;36.10
10453;DHT22;5274;51.992;8.518;2022-11-15T14:49:42;15.90;46.20
10453;DHT22;5274;51.992;8.518;2022-11-15T14:52:28;15.80;54.40
10453;DHT22;5274;51.992;8.518;2022-11-15T14:54:55;15.60;62.80
10453;DHT22;5274;51.992;8.518;2022-11-15T14:57:21;15.50;76.40
10453;DHT22;5274;51.992;8.518;2022-11-15T14:59:47;15.30;86.10
10453;DHT22;5274;51.992;8.518;2022-11-15T15:02:19;15.20;95.50
10453;DHT22;5274;51.992;8.518;2022-11-15T15:04:46;15.00;99.90
10453;DHT22;5274;51.992;8.518;2022-11-15T15:07:11;14.90;99.90
10453;DHT22;5274;51.992;8.518;2022-11-15T15:09:37;14.80;99.90
10453;DHT22;5274;51.992;8.518;2022-11-15T15:12:03;14.70;99.90
10453;DHT22;5274;51.992;8.518;2022-11-15T15:14:29;14.70;99.90
10453;DHT22;5274;51.992;8.518;2022-11-15T15:16:54;14.60;99.90
10453;DHT22;5274;51.992;8.518;2022-11-15T15:19:20;14.50;99.90
10453;DHT22;5274;51.992;8.518;2022-11-15T15:21:45;14.40;99.90
10453;DHT22;5274;51.992;8.518;2022-11-15T15:24:14;14.40;99.90
10453;DHT22;5274;51.992;8.518;2022-11-15T15:26:40;14.30;99.90
10453;DHT22;5274;51.992;8.518;2022-11-15T15:29:06;14.30;99.90
10453;DHT22;5274;51.992;8.518;2022-11-15T15:31:34;14.20;99.90
10453;DHT22;5274;51.992;8.518;2022-11-15T15:33:59;14.10;99.90
10453;DHT22;5274;51.992;8.518;2022-11-15T15:36:25;14.00;99.90
10453;DHT22;5274;51.992;8.518;2022-11-15T15:38:50;14.00;99.90
10453;DHT22;5274;51.992;8.518;2022-11-15T15:41:16;13.90;99.90
10453;DHT22;5274;51.992;8.518;2022-11-15T15:43:42;13.90;99.90
10453;DHT22;5274;51.992;8.518;2022-11-15T15:46:10;13.80;99.90
10453;DHT22;5274;51.992;8.518;2022-11-15T15:48:36;13.80;99.90
10453;DHT22;5274;51.992;8.518;2022-11-15T15:51:03;13.70;99.90
10453;DHT22;5274;51.992;8.518;2022-11-15T15:53:29;13.70;99.90
10453;DHT22;5274;51.992;8.518;2022-11-15T15:55:55;13.60;99.90
10453;DHT22;5274;51.992;8.518;2022-11-15T15:58:21;13.70;99.90
10453;DHT22;5274;51.992;8.518;2022-11-15T16:00:46;13.60;99.90
10453;DHT22;5274;51.992;8.518;2022-11-15T16:03:12;13.60;99.90
10453;DHT22;5274;51.992;8.518;2022-11-15T16:05:37;13.50;99.90
10453;DHT22;5274;51.992;8.518;2022-11-15T16:08:03;13.40;99.90
10453;DHT22;5274;51.992;8.518;2022-11-15T16:10:32;13.40;99.90
10453;DHT22;5274;51.992;8.518;2022-11-15T16:12:59;13.30;99.90
10453;DHT22;5274;51.992;8.518;2022-11-15T16:15:26;13.20;99.90
10453;DHT22;5274;51.992;8.518;2022-11-15T16:18:00;13.10;99.90
10453;DHT22;5274;51.992;8.518;2022-11-15T16:20:43;13.00;99.90
10453;DHT22;5274;51.992;8.518;2022-11-15T16:23:19;12.90;99.90
10453;DHT22;5274;51.992;8.518;2022-11-15T16:25:48;12.90;99.90
10453;DHT22;5274;51.992;8.518;2022-11-15T16:28:32;12.80;99.90
10453;DHT22;5274;51.992;8.518;2022-11-15T16:31:24;12.70;99.90
10453;DHT22;5274;51.992;8.518;2022-11-15T16:33:49;12.60;99.90
10453;DHT22;5274;51.992;8.518;2022-11-15T16:36:21;12.50;99.90
10453;DHT22;5274;51.992;8.518;2022-11-15T16:38:48;12.30;1.00
10453;DHT22;5274;51.992;8.518;2022-11-15T16:41:14;12.20;1.00
10453;DHT22;5274;51.992;8.518;2022-11-15T16:43:40;12.10;1.00
10453;DHT22;5274;51.992;8.518;2022-11-15T16:46:13;12.10;1.00
10453;DHT22;5274;51.992;8.518;2022-11-15T16:48:39;12.10;1.00
10453;DHT22;5274;51.992;8.518;2022-11-15T16:51:04;12.00;1.00
10453;DHT22;5274;51.992;8.518;2022-11-15T16:53:30;12.00;1.00
10453;DHT22;5274;51.992;8.518;2022-11-15T16:55:56;11.90;1.00
10453;DHT22;5274;51.992;8.518;2022-11-15T16:58:22;11.80;1.00
10453;DHT22;5274;51.992;8.518;2022-11-15T17:00:55;11.90;91.50
10453;DHT22;5274;51.992;8.518;2022-11-15T17:03:22;11.90;99.90
10453;DHT22;5274;51.992;8.518;2022-11-15T17:05:48;11.80;99.90
10453;DHT22;5274;51.992;8.518;2022-11-15T17:08:14;11.80;99.90
10453;DHT22;5274;51.992;8.518;2022-11-15T17:10:40;11.70;99.90
10453;DHT22;5274;51.992;8.518;2022-11-15T17:13:11;11.70;99.90
10453;DHT22;5274;51.992;8.518;2022-11-15T17:15:38;11.70;99.90
10453;DHT22;5274;51.992;8.518;2022-11-15T17:18:04;11.70;99.90
10453;DHT22;5274;51.992;8.518;2022-11-15T17:20:31;11.70;99.90
10453;DHT22;5274;51.992;8.518;2022-11-15T17:22:56;11.80;1.00
10453;DHT22;5274;51.992;8.518;2022-11-15T17:25:22;11.80;1.00
10453;DHT22;5274;51.992;8.518;2022-11-15T17:27:48;11.90;1.00
10453;DHT22;5274;51.992;8.518;2022-11-15T17:30:14;11.90;1.00
10453;DHT22;5274;51.992;8.518;2022-11-15T17:32:41;11.80;1.00
10453;DHT22;5274;51.992;8.518;2022-11-15T17:35:08;11.90;1.00
10453;DHT22;5274;51.992;8.518;2022-11-15T17:37:35;11.90;1.00
10453;DHT22;5274;51.992;8.518;2022-11-15T17:40:01;11.90;1.00